-JavaCPC -demo -emu -j-cpc_ani -tools 0-9 A B C D E F G H I J K L M N O P Q R S T U V W X Y Z roms
FILEDATESIZEDLs
KTris by Richard Wilson (PD).zip 2017-04-21 16:14 2 Kb223
Kaiser (G) (19xx).zip 2017-04-21 16:13 91 Kb244
Kane & Nebulus & Renaud - Marche a l'Ombre.zip 2017-04-21 16:13 95 Kb137
Kane (UK) (1986).zip 2017-04-21 16:13 28 Kb214
Kane (UK) (1986) [a1].zip 2017-04-21 16:13 80 Kb225
Kane (UK) (1986) [a2].zip 2017-04-21 16:13 38 Kb209
Kane (UK) (1986) [t1].zip 2017-04-21 16:13 38 Kb226
Karateka (F) (1986).zip 2017-04-21 16:13 50 Kb222
Karateka (F) (1986) [f1].zip 2017-04-21 16:13 50 Kb222
Karateka (F) (1986) [t1].zip 2017-04-21 16:13 50 Kb219
Karateka (F) (1990).zip 2017-04-21 16:13 49 Kb220
Karateka (F) (1990) [t1].zip 2017-04-21 16:13 49 Kb213
Karateka (F).dsk 2017-04-21 16:13 192 Kb223
Karl's Treasure Hunt (UK) (1984).zip 2017-04-21 16:13 11 Kb216
Karl's Treasure Hunt (UK) (1984) [a1].zip 2017-04-21 16:13 84 Kb215
Karl's Treasure Hunt (UK) (1984) [a2].zip 2017-04-21 16:13 11 Kb210
Karnov (E) - Disk 1A.dsk 2017-04-21 16:13 214 Kb213
Karnov (E) - Disk 1B.dsk 2017-04-21 16:13 214 Kb210
Karnov (UK) (1988) (Disk 1 of 2).zip 2017-04-21 16:13 73 Kb204
Karnov (UK) (1988) (Disk 1 of 2) [a1].zip 2017-04-21 16:13 56 Kb201
Karnov (UK) (1988) (Disk 1 of 2) [t1].zip 2017-04-21 16:13 159 Kb216
Karnov (UK) (1988) (Disk 1 of 2) [t2].zip 2017-04-21 16:13 73 Kb200
Karnov (UK) (1988) (Disk 2 of 2).zip 2017-04-21 16:13 62 Kb208
Karnov (UK) (1988) (Disk 2 of 2) [a1].zip 2017-04-21 16:13 105 Kb207
Karnov (UK) (1988) (Disk 2 of 2) [t2].zip 2017-04-21 16:13 62 Kb239
Kat Trap (E).dsk 2017-04-21 16:13 91 Kb206
Kat Trap (UK) (1987).zip 2017-04-21 16:13 34 Kb212
Keep Yourself Alive (F) (1987).zip 2017-04-21 16:13 19 Kb215
Kenny Dalglish Soccer Manager (E).cdt 2017-04-21 16:13 57 Kb224
Kenny Dalglish Soccer Manager (UK) (1989).zip 2017-04-21 16:13 25 Kb209
Kenny Dalglish Soccer Match (UK) (1990).zip 2017-04-21 16:13 29 Kb208
Kentilla (UK) (1985).zip 2017-04-21 16:13 23 Kb213
Kentilla (UK) (1985) [a1].zip 2017-04-21 16:13 30 Kb213
Kentucky Racing (E).cdt 2017-04-21 16:13 45 Kb219
Kentucky Racing (UK) (1990).zip 2017-04-21 16:13 24 Kb207
Kentucky Racing (UK) (1990) [f1].zip 2017-04-21 16:13 24 Kb214
Kessia (F) (19xx).zip 2017-04-21 16:13 72 Kb207
Kettle (E).dsk 2017-04-21 16:13 193 Kb205
Kettle (UK) (1986).zip 2017-04-21 16:13 21 Kb216
Kevin Thacker's CPC Guide (UK) (19xx) (PD) (Disk 1 of 2).zip 2017-04-21 16:13 47 Kb202
Kevin Thacker's CPC Guide (UK) (19xx) (PD) (Disk 2 of 2).zip 2017-04-21 16:13 41 Kb206
Key Factor, The (UK) (1985).zip 2017-04-21 16:13 13 Kb210
Kick Off (UK,F,G,S,I) (1990).zip 2017-04-21 16:13 27 Kb210
Kick Off (UK,F,G,S,I) (1990) [a1].zip 2017-04-21 16:13 131 Kb205
Kick Off (UK,F,G,S,I) (1990) [a2].zip 2017-04-21 16:13 31 Kb201
Kick Off 2 (E) - Disk 1A.dsk 2017-04-21 16:13 178 Kb221
Kick Off 2 (E) - Disk 1B.dsk 2017-04-21 16:13 178 Kb213
Kick Off 2 (F) (1990).zip 2017-04-21 16:13 68 Kb209
Kick Off 2 (F) (1990) [a1].zip 2017-04-21 16:13 68 Kb211
Kikstart II (UK) (1988).zip 2017-04-21 16:13 24 Kb212
Kikstart II (UK) (1988) [a1].zip 2017-04-21 16:13 23 Kb218
Killapede (UK) (1986).zip 2017-04-21 16:13 26 Kb207
Killapede (UK) (1986) [a1].zip 2017-04-21 16:13 26 Kb204
Killapede (UK) (1986) [a2].zip 2017-04-21 16:13 32 Kb217
Killapede (UK) (1986) [a3].zip 2017-04-21 16:13 30 Kb239
Killed Until Dead (UK) (1987) (Disk 1 of 2).zip 2017-04-21 16:13 50 Kb198
Killed Until Dead (UK) (1987) (Disk 2 of 2).zip 2017-04-21 16:13 62 Kb203
Killer Ball (UK) (1991).zip 2017-04-21 16:14 103 Kb206
Killer Ball (UK) (1991) [a1].zip 2017-04-21 16:13 103 Kb206
Killer Ball (UK) (1991) [a2].zip 2017-04-21 16:13 76 Kb205
Killer Ball (UK) (1991) [a3].zip 2017-04-21 16:13 96 Kb201
Killer Cobra (E).cdt 2017-04-21 16:14 49 Kb207
Killer Cobra (UK) (1987).zip 2017-04-21 16:14 27 Kb208
Killer Cobra (UK) (1987) [a1].zip 2017-04-21 16:14 27 Kb207
Killer Cobra (UK) (1987) [a2].zip 2017-04-21 16:14 31 Kb202
Killer Gorilla & Knight Lore & Laserwarp & Molecule Man & Zaxx (F).zip 2017-04-21 16:14 82 Kb132
Killer Gorilla (UK) (1984).zip 2017-04-21 16:14 19 Kb209
Killer Gorilla (UK) (1984) [a1].zip 2017-04-21 16:14 19 Kb215
Killer Gorilla (UK) (1984) [a2].zip 2017-04-21 16:14 15 Kb218
Killer Gorilla (UK) (1984) [a3].zip 2017-04-21 16:14 18 Kb209
Killer Gorilla (UK) (1984) [b1].zip 2017-04-21 16:14 19 Kb208
Killer Gorilla (UK) (1984) [b2].zip 2017-04-21 16:14 19 Kb210
Killer Ring (UK) (1987).zip 2017-04-21 16:14 16 Kb212
Killer Ring (UK) (1987) [a1].zip 2017-04-21 16:14 16 Kb213
Kiloroid (UK) (19xx).zip 2017-04-21 16:14 2 Kb205
Kim (F) (1986).zip 2017-04-21 16:14 9 Kb207
Kinetic (UK) (1987).zip 2017-04-21 16:14 35 Kb205
Kinetic (UK) (1987) [a1].zip 2017-04-21 16:14 36 Kb211
Kinetic (UK) (1987) [a2].zip 2017-04-21 16:14 35 Kb214
Kinetik (E).dsk 2017-04-21 16:14 195 Kb222
Kingdom of Hamil (UK) (1987).zip 2017-04-21 16:14 57 Kb206
Kingdoms (UK) (1985).zip 2017-04-21 16:14 5 Kb206
Kit de Telechargement - Telecharge Amstrad CPC (F).dsk 2017-04-21 16:14 217 Kb215
Kit de Telechargement pour Amstrad CPC (F).dsk 2017-04-21 16:14 191 Kb229
Klax & Meynaumede (F) & Nervous Break Down (F) & Skweek.zip 2017-04-21 16:14 97 Kb133
Klax (E).dsk 2017-04-21 16:14 172 Kb211
Klax (UK) (1990) (CPM).zip 2017-04-21 16:14 44 Kb203
Klax (UK) (1990) (CPM) [a1].zip 2017-04-21 16:14 44 Kb219
Klax (UK) (1990) (CPM Version).zip 2017-04-21 16:14 43 Kb202
Klax (UK) (1990) (CPM Version) [a1].zip 2017-04-21 16:14 43 Kb210
Klax (UK) (1990) (Cart).zip 2017-04-21 16:14 41 Kb215
Klax (UK) (1990).zip 2017-04-21 16:14 42 Kb203
Klax (UK) (1990) [a1].zip 2017-04-21 16:14 42 Kb216
Klax (UK) (1990) [h1].zip 2017-04-21 16:14 52 Kb206
Klax (UK) (1990) [h2].zip 2017-04-21 16:14 54 Kb211
Knaves and thou Prisoners (UK) (19xx).zip 2017-04-21 16:14 8 Kb201
Knight Force (F) (1989) (Disk 1 of 2).zip 2017-04-21 16:14 54 Kb206
Knight Force (F) (1989) (Disk 1 of 2) [t1].zip 2017-04-21 16:14 55 Kb201
Knight Force (F) (1989) (Disk 1 of 2) [t2] & Power Drift.zip 2017-04-21 16:14 108 Kb124
Knight Force (F) (1989) (Disk 1 of 2) [t2].zip 2017-04-21 16:14 75 Kb199
Knight Force (F) (1989) (Disk 2 of 2).zip 2017-04-21 16:14 76 Kb208
Knight Force (F) - Disk 1A.dsk 2017-04-21 16:14 456 Kb210
Knight Force (F) - Disk 1B.dsk 2017-04-21 16:14 627 Kb210
Knight Games (E) - Side A.cdt 2017-04-21 16:14 166 Kb218
Knight Games (E) - Side B.cdt 2017-04-21 16:14 142 Kb206
Knight Games (UK) (1986) (Disk 1 of 2).zip 2017-04-21 16:14 88 Kb210
Knight Games (UK) (1986) (Disk 1 of 2) [a1].zip 2017-04-21 16:14 83 Kb201
Knight Games (UK) (1986) (Disk 1 of 2) [a2].zip 2017-04-21 16:14 83 Kb200
Knight Games (UK) (1986) (Disk 1 of 2) [a3].zip 2017-04-21 16:14 103 Kb194
Knight Games (UK) (1986) (Disk 2 of 2).zip 2017-04-21 16:14 94 Kb212
Knight Games (UK) (1986) (Disk 2 of 2) [a1].zip 2017-04-21 16:14 76 Kb201
Knight Games (UK) (1986) (Disk 2 of 2) [a2].zip 2017-04-21 16:14 79 Kb199
Knight Games (UK) (1986) (Disk 2 of 2) [a3].zip 2017-04-21 16:14 109 Kb201
Knight Games (UK) (1986) [f1][t1].zip 2017-04-21 16:14 179 Kb206
Knight Lore (E).cdt 2017-04-21 16:14 42 Kb210
Knight Lore (UK) (1984).zip 2017-04-21 16:14 25 Kb215
Knight Lore (UK) (1984) [a1].zip 2017-04-21 16:14 25 Kb207
Knight Lore (UK) (1984) [a2].zip 2017-04-21 16:14 25 Kb214
Knight Moves (F) (19xx) (Disk 1 of 2).zip 2017-04-21 16:14 60 Kb206
Knight Moves (F) (19xx) (Disk 2 of 2).zip 2017-04-21 16:14 83 Kb208
Knight Orc (E) - Disk 1A.dsk 2017-04-21 16:14 194 Kb210
Knight Orc (E) - Disk 1B.dsk 2017-04-21 16:14 199 Kb211
Knight Orc (UK) (1987) (Disk 1 of 2).zip 2017-04-21 16:14 119 Kb219
Knight Orc (UK) (1987) (Disk 2 of 2).zip 2017-04-21 16:14 110 Kb212
Knight Rider (E).cdt 2017-04-21 16:14 45 Kb216
Knight Rider (UK) (1986).zip 2017-04-21 16:14 20 Kb208
Knight Rider (UK) (1986) [h1].zip 2017-04-21 16:14 32 Kb206
Knight Rider (UK) (1986) [h2].zip 2017-04-21 16:14 21 Kb213
Knight Tyme (E).cdt 2017-04-21 16:14 57 Kb216
Knight Tyme (UK) (1986).zip 2017-04-21 16:14 31 Kb216
Knight Tyme (UK) (1986) [a1].zip 2017-04-21 16:14 31 Kb212
Knight Tyme (UK) (1986) [t1].zip 2017-04-21 16:14 31 Kb204
Knightmare (E).dsk 2017-04-21 16:14 213 Kb223
Knightmare (UK) (1987).zip 2017-04-21 16:14 29 Kb207
Knightmare (UK) (1987) [a1].zip 2017-04-21 16:14 30 Kb207
Knightmare (UK) (1987) [a2].zip 2017-04-21 16:14 30 Kb215
Knightmare (UK) (1987) [t1].zip 2017-04-21 16:14 33 Kb210
Know (G).dsk 2017-04-21 16:14 192 Kb226
Kobayashi Naru (UK) (19xx).zip 2017-04-21 16:14 31 Kb220
Kobayashi Naru (UK) (1987).zip 2017-04-21 16:14 31 Kb224
Kobayashi Naru (UK) (1987) [a1].zip 2017-04-21 16:14 31 Kb210
Kobayashi Naru (UK) (1987) [a2].zip 2017-04-21 16:14 48 Kb230
Kokotoni Wilf (UK) (19xx).zip 2017-04-21 16:14 137 Kb218
Kokotoni Wilf (UK) (19xx) [a1].zip 2017-04-21 16:14 35 Kb217
Kokotoni Wilf (UK) (19xx) [f1][t1].zip 2017-04-21 16:14 37 Kb209
Konami's Golf (UK) (1986).zip 2017-04-21 16:14 24 Kb206
Konami's Golf (UK) (1986) [a1].zip 2017-04-21 16:14 24 Kb210
Konami's Golf (UK) (1986) [a2].zip 2017-04-21 16:14 26 Kb212
Konami Coin-op Hits (UK) (19xx) (Disk 1 of 2).zip 2017-04-21 16:14 50 Kb212
Konami Coin-op Hits (UK) (19xx) (Disk 1 of 2) [a1].zip 2017-04-21 16:14 50 Kb199
Konami Coin-op Hits (UK) (19xx) (Disk 2 of 2).zip 2017-04-21 16:14 65 Kb203
Konami Coin-op Hits (UK) (19xx) (Disk 2 of 2) [a1].zip 2017-04-21 16:14 65 Kb222
Konami Coin-op Hits (UK) (19xx) (Disk 2 of 2) [a2].zip 2017-04-21 16:14 65 Kb203
Kong Strikes Back (UK) (1985).zip 2017-04-21 16:14 21 Kb225
Kong Strikes Back (UK) (1985) [a1].zip 2017-04-21 16:14 21 Kb222
Kong Strikes Back (UK) (1985) [a2].zip 2017-04-21 16:14 23 Kb211
Koronis Rift (E).dsk 2017-04-21 16:14 186 Kb216
Koronis Rift (UK) (1987).zip 2017-04-21 16:14 57 Kb215
Krakout (E).cdt 2017-04-21 16:14 64 Kb224
Krakout (E).dsk 2017-04-21 16:14 171 Kb216
Krakout (UK) (1987).zip 2017-04-21 16:14 31 Kb216
Krakout (UK) (1987) [h1].zip 2017-04-21 16:14 34 Kb215
Kristal (F).dsk 2017-04-21 16:14 191 Kb217
Kristal (UK) (1985).zip 2017-04-21 16:14 16 Kb221
Kristax (UK) (1989).zip 2017-04-21 16:14 9 Kb219
Krypton Factor (UK) (1987) (Disk 1 of 2).zip 2017-04-21 16:14 52 Kb204
Krypton Factor (UK) (1987) (Disk 1 of 2) [a1].zip 2017-04-21 16:14 47 Kb213
Krypton Factor (UK) (1987) (Disk 2 of 2).zip 2017-04-21 16:14 5 Kb211
Krypton Factor (UK) (1987) (Disk 2 of 2) [a1].zip 2017-04-21 16:14 21 Kb208
Kung-Fu (UK) (1986).zip 2017-04-21 16:14 19 Kb213
Kung-Fu Master (E).dsk 2017-04-21 16:14 191 Kb208
Kung-Fu Master (UK) (1986).zip 2017-04-21 16:14 28 Kb224
Kung-Fu Master (UK) (1986) [h1].zip 2017-04-21 16:14 22 Kb213
Kwah (UK) (1987).zip 2017-04-21 16:14 36 Kb200
Kwik Snax (E).cdt 2017-04-21 16:14 65 Kb226
Kwik Snax (UK) (1990).zip 2017-04-21 16:14 22 Kb207
Kwik Snax (UK) (1990) [f1].zip 2017-04-21 16:14 33 Kb220
Kwik Snax (UK) (1990) [h1].zip 2017-04-21 16:14 41 Kb213
Kwik Snax (UK) (1990) [t1].zip 2017-04-21 16:14 33 Kb215
kobayashi Naru (E).cdt 2017-04-21 16:14 74 Kb215
180 Files
-JavaCPC -demo -emu -j-cpc_ani -tools 0-9 A B C D E F G H I J K L M N O P Q R S T U V W X Y Z roms